首页
METAR-TAF:

METAR-TAF

机场 :

凯夫拉维克国际机场

凯夫拉维克, 冰岛

纬度: 63-58N, 经度: 022-36W, 海拔: 52米

当前天气观测

该预报发布于26分钟前的00:00 UTC
风速18节,风向西北
温度 6°C
湿度 87%
气压 1011 hPa
能见度10公里或以上
少量云层高于2200英尺
多云层高于4600英尺

METAR: BIKF 290000Z 31018KT 9999 FEW022 BKN046 06/04 Q1011

时间: 00:26 (00:26 UTC)

预报

该预报发布于1小时和32分钟前的22:54 UTC
预报有效从29日的 00点(UTC)到 30日的 00点(UTC)
风速18节,风向西转西北
能见度10公里或以上
多云层高于1500英尺
阴天层高于3000英尺
小雨, 毛毛雨
成为
从 29日的 00点(UTC)到 29日的 02点(UTC)
散云层高于1700英尺
多云层高于2700英尺
成为
从 29日的 08点(UTC)到 29日的 10点(UTC)
风速8节,风向西
成为
从 29日的 19点(UTC)到 29日的 21点(UTC)
风速14节,风向南转西南
成为
从 29日的 22点(UTC)到 30日的 00点(UTC)
多云层高于1200英尺
阴天层高于2000英尺
小雨,

TAF: BIKF 282254Z 2900/3000 30018KT 9999 -RADZ BKN015 OVC030 TX10/2915Z TN05/2906Z BECMG 2900/2902 NSW SCT017 BKN027 BECMG 2908/2910 27008KT BECMG 2919/2921 20014KT BECMG 2922/3000 -RA BKN012 OVC020

超过4000个机场的气象观测和天气预报(METAR&TAF报告)。

可查询的气象台以黄色和红色小点在地图上表示。

将鼠标移到小点上方,可查看气象台名称。

然后点击查看天气观测和预报。

如需切换地图:点击带黑十字的绿色按钮放大地图;点击带横线的绿色按钮缩小地图;或者点击绿色箭头查看邻近地区的地图。


METAR-TAF: